Vanderbilt, Michigan
Current Conditions -  °F | °C
As of 11:21 AM on Thursday 29 Jan 2015 (Local Time) from KGLR Reporting Station
Light Snow Light Snow  
Wind Chill: 18°   Ceiling: 2200
Heat Index: 24°   Visibility: 1mi
Dew Point: 23°   Wind: 5mph
Humidity: 96%   Direction: 260°W
Pressure: 29.74"   Gusts: NA
Location:  45.14°N, 84.66°W
Report Text: KGLR 291621Z AUTO 26004KT 1SM -SN BR BKN022 OVC031 M04/M05 A2974 RMK AO2 P0000 T10441050
Loading
Personal Weather Stations






























Interactive Weather Map New forecast layout! Learn more

10-Day Weather Forecast

Advertisements
Track Severe Weather on mobile